Time;durP1;ratioP1;P1;durP2;ratioP2;P2;SDS_P1;SDS_P2;PMS_P1;PMS_P2;Temp;Humidity;BMP_temperature;BMP_pressure;BME280_temperature;BME280_humidity;BME280_pressure;Samples;Min_cycle;Max_cycle;Signal;HPM_P1;HPM_P2
2022/07/05 00:00:57;;;;;;;4.05;2.25;;;18.80;99.90;;;;;;5029449;28;20192;-86
2022/07/05 00:03:25;;;;;;;1.90;1.80;;;18.80;99.90;;;;;;5030924;28;20195;-86
2022/07/05 00:05:53;;;;;;;2.53;1.70;;;18.70;99.90;;;;;;5021191;28;20204;-86
2022/07/05 00:08:22;;;;;;;2.25;1.88;;;18.60;99.90;;;;;;5024720;28;20578;-87
2022/07/05 00:10:50;;;;;;;2.28;2.10;;;18.50;99.90;;;;;;5036867;28;20229;-87
2022/07/05 00:13:17;;;;;;;2.53;2.33;;;18.20;99.90;;;;;;5026788;28;20216;-87
2022/07/05 00:15:45;;;;;;;2.33;1.88;;;18.00;99.90;;;;;;5032216;28;20203;-87
2022/07/05 00:18:13;;;;;;;4.25;2.33;;;17.80;99.90;;;;;;5022683;28;20215;-86
2022/07/05 00:20:40;;;;;;;2.60;2.03;;;17.80;99.90;;;;;;5025694;28;20211;-86
2022/07/05 00:23:08;;;;;;;2.50;1.98;;;17.70;99.90;;;;;;5027789;28;20195;-86
2022/07/05 00:25:37;;;;;;;2.63;2.03;;;17.60;99.90;;;;;;5027481;28;20223;-87
2022/07/05 00:28:04;;;;;;;4.35;2.10;;;17.50;99.90;;;;;;5024385;28;20223;-86
2022/07/05 00:30:32;;;;;;;2.28;2.05;;;17.60;99.90;;;;;;5029394;28;20199;-89
2022/07/05 00:33:00;;;;;;;3.78;2.30;;;17.50;99.90;;;;;;5021401;28;20212;-86
2022/07/05 00:35:30;;;;;;;2.53;2.15;;;17.50;99.90;;;;;;5020643;28;20214;-86
2022/07/05 00:37:58;;;;;;;2.08;1.80;;;17.30;99.90;;;;;;5024412;28;20580;-86
2022/07/05 00:40:26;;;;;;;4.25;2.42;;;17.10;99.90;;;;;;5027186;28;20207;-88
2022/07/05 00:42:55;;;;;;;3.03;2.50;;;16.90;99.90;;;;;;5029955;28;20206;-86
2022/07/05 00:45:23;;;;;;;3.00;2.22;;;16.80;99.90;;;;;;5020972;28;20203;-86
2022/07/05 00:47:51;;;;;;;3.65;2.67;;;16.90;99.90;;;;;;5026854;28;20222;-86
2022/07/05 00:50:18;;;;;;;2.90;2.13;;;16.80;99.90;;;;;;5031035;28;20565;-86
2022/07/05 00:52:46;;;;;;;2.45;2.25;;;16.90;99.90;;;;;;5020324;28;20211;-87
2022/07/05 00:55:16;;;;;;;2.58;2.30;;;17.00;99.90;;;;;;5038715;28;20211;-87
2022/07/05 00:57:43;;;;;;;4.28;2.60;;;16.90;99.90;;;;;;5025563;28;20230;-86
2022/07/05 01:00:13;;;;;;;4.43;2.25;;;16.80;99.90;;;;;;5027807;28;20208;-86
2022/07/05 01:02:41;;;;;;;4.90;2.65;;;16.70;99.90;;;;;;5035304;28;20199;-87
2022/07/05 01:05:09;;;;;;;2.85;2.65;;;17.00;99.90;;;;;;5019718;28;20200;-86
2022/07/05 01:07:36;;;;;;;2.70;2.50;;;17.20;99.90;;;;;;5045965;28;20222;-89
2022/07/05 01:10:05;;;;;;;2.35;2.13;;;17.30;99.90;;;;;;5022469;28;20195;-86
2022/07/05 01:12:32;;;;;;;2.72;2.10;;;17.40;99.90;;;;;;5022194;28;20199;-86
2022/07/05 01:15:00;;;;;;;5.35;2.38;;;17.30;99.90;;;;;;5019757;28;20234;-86
2022/07/05 01:17:30;;;;;;;4.88;2.50;;;17.20;99.90;;;;;;5021247;28;20195;-86
2022/07/05 01:19:58;;;;;;;2.20;2.08;;;17.10;99.90;;;;;;5025160;28;20208;-86
2022/07/05 01:22:27;;;;;;;2.83;1.90;;;16.80;99.90;;;;;;5024560;28;20712;-86
2022/07/05 01:24:57;;;;;;;2.38;2.10;;;16.90;99.90;;;;;;5032746;28;20198;-87
2022/07/05 01:27:24;;;;;;;2.72;2.33;;;17.10;99.90;;;;;;5031321;28;20206;-86
2022/07/05 01:29:52;;;;;;;3.40;2.45;;;17.00;99.90;;;;;;5023426;28;20202;-86
2022/07/05 01:32:20;;;;;;;3.50;3.13;;;17.00;99.90;;;;;;5027200;28;20196;-86
2022/07/05 01:34:48;;;;;;;2.97;2.22;;;17.00;99.90;;;;;;5029262;28;20686;-86
2022/07/05 01:37:16;;;;;;;3.78;2.40;;;17.00;99.90;;;;;;5026033;28;20200;-86
2022/07/05 01:39:44;;;;;;;3.83;2.50;;;17.00;99.90;;;;;;5026100;28;20203;-86
2022/07/05 01:42:13;;;;;;;3.03;2.40;;;17.10;99.90;;;;;;5022660;28;20199;-86
2022/07/05 01:44:41;;;;;;;2.33;2.13;;;17.00;99.90;;;;;;5022959;28;20210;-85
2022/07/05 01:47:09;;;;;;;2.65;2.10;;;16.90;99.90;;;;;;5026364;28;20209;-86
2022/07/05 01:49:45;;;;;;;3.30;2.35;;;16.80;99.90;;;;;;5021516;28;20204;-87
2022/07/05 01:52:13;;;;;;;2.83;2.33;;;17.10;99.90;;;;;;5020920;28;20568;-89
2022/07/05 01:54:43;;;;;;;2.38;2.17;;;17.20;99.90;;;;;;5029212;28;20226;-86
2022/07/05 01:57:10;;;;;;;3.90;2.60;;;17.50;99.90;;;;;;5023255;28;20196;-86
2022/07/05 01:59:40;;;;;;;4.68;2.53;;;17.50;99.90;;;;;;5028031;28;20199;-89
2022/07/05 02:02:09;;;;;;;4.68;2.67;;;17.40;99.90;;;;;;5020646;28;20215;-86
2022/07/05 02:04:37;;;;;;;2.97;2.75;;;17.40;99.90;;;;;;5022381;28;20199;-87
2022/07/05 02:07:09;;;;;;;2.88;2.15;;;17.40;99.90;;;;;;5024579;28;20199;-86
2022/07/05 02:09:39;;;;;;;2.50;2.30;;;17.30;99.90;;;;;;5019736;28;20207;-85
2022/07/05 02:12:07;;;;;;;2.08;1.88;;;17.00;99.90;;;;;;5034650;28;20207;-86
2022/07/05 02:14:35;;;;;;;2.47;1.90;;;16.80;99.90;;;;;;5029842;28;20234;-86
2022/07/05 02:17:08;;;;;;;1.92;1.83;;;16.80;99.90;;;;;;5025998;28;20202;-87
2022/07/05 02:19:38;;;;;;;2.47;2.17;;;16.90;99.90;;;;;;5027907;28;20222;-87
2022/07/05 02:22:07;;;;;;;2.20;2.00;;;17.10;99.90;;;;;;5031059;28;20211;-87
2022/07/05 02:24:36;;;;;;;3.17;2.08;;;17.20;99.90;;;;;;5028836;28;20198;-86
2022/07/05 02:27:19;;;;;;;4.32;2.10;;;17.40;99.90;;;;;;5026263;28;20199;-86
2022/07/05 02:29:47;;;;;;;3.58;2.30;;;17.30;99.90;;;;;;5031942;28;20195;-86
2022/07/05 02:32:18;;;;;;;2.10;1.90;;;17.30;99.90;;;;;;5029129;28;20200;-88
2022/07/05 02:34:46;;;;;;;3.38;2.50;;;17.00;99.90;;;;;;5023005;28;20808;-86
2022/07/05 02:37:14;;;;;;;3.83;2.15;;;16.80;99.90;;;;;;5026535;28;20207;-86
2022/07/05 02:39:42;;;;;;;2.17;2.05;;;16.80;99.90;;;;;;5029732;28;20202;-88
2022/07/05 02:42:11;;;;;;;2.25;2.05;;;16.90;99.90;;;;;;5027337;28;20696;-86
2022/07/05 02:44:39;;;;;;;2.75;1.95;;;16.90;99.90;;;;;;5026739;28;20199;-86
2022/07/05 02:47:08;;;;;;;2.47;2.28;;;16.90;99.90;;;;;;5029687;28;20195;-86
2022/07/05 02:49:37;;;;;;;2.88;2.33;;;17.10;99.90;;;;;;5025096;28;20227;-86
2022/07/05 02:52:07;;;;;;;4.57;2.30;;;17.00;99.90;;;;;;5024016;28;20199;-87
2022/07/05 02:54:35;;;;;;;2.20;2.08;;;16.80;99.90;;;;;;5030077;28;20215;-86
2022/07/05 02:57:05;;;;;;;2.92;1.92;;;16.80;99.90;;;;;;5027513;28;20207;-85
2022/07/05 02:59:33;;;;;;;2.58;2.22;;;17.10;99.90;;;;;;5038766;28;20219;-86
2022/07/05 03:02:01;;;;;;;2.67;2.10;;;17.10;99.90;;;;;;5024815;28;20199;-86
2022/07/05 03:04:30;;;;;;;2.63;2.40;;;17.00;99.90;;;;;;5026056;28;20214;-87
2022/07/05 03:07:00;;;;;;;2.88;1.98;;;16.90;99.90;;;;;;5034074;28;20196;-86
2022/07/05 03:09:30;;;;;;;4.75;1.90;;;16.70;99.90;;;;;;5018442;28;20845;-86
2022/07/05 03:12:00;;;;;;;3.10;2.05;;;16.60;99.90;;;;;;5019167;28;20219;-86
2022/07/05 03:14:28;;;;;;;2.15;1.90;;;16.50;99.90;;;;;;5030700;28;20215;-86
2022/07/05 03:16:56;;;;;;;2.15;2.00;;;16.70;99.90;;;;;;5019150;28;20207;-88
2022/07/05 03:19:24;;;;;;;2.22;1.83;;;16.60;99.90;;;;;;5023712;28;20226;-87
2022/07/05 03:21:52;;;;;;;2.13;1.92;;;16.70;99.90;;;;;;5025752;28;20200;-87
2022/07/05 03:24:21;;;;;;;2.20;2.00;;;16.80;99.90;;;;;;5022087;28;20187;-87
2022/07/05 03:26:49;;;;;;;2.30;2.10;;;16.60;99.90;;;;;;5030930;28;20677;-86
2022/07/05 03:29:17;;;;;;;2.42;2.22;;;16.30;99.90;;;;;;5029043;28;20224;-86
2022/07/05 03:31:45;;;;;;;2.75;2.10;;;16.40;99.90;;;;;;5022401;28;20195;-86
2022/07/05 03:34:13;;;;;;;3.25;2.00;;;16.70;99.90;;;;;;5025741;28;20207;-87
2022/07/05 03:36:41;;;;;;;2.60;2.05;;;16.90;99.90;;;;;;5024091;28;20206;-86
2022/07/05 03:39:13;;;;;;;2.97;2.30;;;16.80;99.90;;;;;;5023650;28;20224;-86
2022/07/05 03:41:42;;;;;;;4.03;2.42;;;16.90;99.90;;;;;;5023555;28;20223;-86
2022/07/05 03:44:13;;;;;;;2.53;2.33;;;16.90;99.90;;;;;;5028688;28;20191;-87
2022/07/05 03:46:41;;;;;;;2.53;2.30;;;16.90;99.90;;;;;;5028263;28;20203;-87
2022/07/05 03:49:08;;;;;;;2.65;2.17;;;17.00;99.90;;;;;;5032013;28;20222;-86
2022/07/05 03:51:36;;;;;;;2.85;2.55;;;16.90;99.90;;;;;;5020782;28;20211;-86
2022/07/05 03:54:05;;;;;;;3.15;2.85;;;16.80;99.90;;;;;;5026289;28;20198;-86
2022/07/05 03:56:33;;;;;;;2.60;2.33;;;16.60;99.90;;;;;;5029724;28;20194;-86
2022/07/05 03:59:06;;;;;;;2.65;2.38;;;16.60;99.90;;;;;;5023676;28;20219;-86
2022/07/05 04:01:35;;;;;;;2.92;2.13;;;16.90;99.90;;;;;;5025745;28;20198;-87
2022/07/05 04:04:04;;;;;;;6.72;2.92;;;16.90;99.90;;;;;;5027736;28;20199;-87
2022/07/05 04:06:33;;;;;;;4.38;2.45;;;16.60;99.90;;;;;;5028564;28;20203;-87
2022/07/05 04:09:02;;;;;;;2.60;2.40;;;16.80;99.90;;;;;;5027994;28;20215;-86
2022/07/05 04:11:30;;;;;;;2.80;2.38;;;16.90;99.90;;;;;;5027925;28;20200;-86
2022/07/05 04:13:58;;;;;;;3.58;2.38;;;16.90;99.90;;;;;;5021891;28;20658;-86
2022/07/05 04:16:27;;;;;;;3.20;2.80;;;16.90;99.90;;;;;;5039358;28;20297;-86
2022/07/05 04:18:55;;;;;;;2.78;2.55;;;16.90;99.90;;;;;;5043818;28;20223;-86
2022/07/05 04:21:22;;;;;;;3.60;2.47;;;17.10;99.90;;;;;;5037773;28;20204;-86
2022/07/05 04:23:50;;;;;;;2.92;2.72;;;17.30;99.90;;;;;;5035691;28;20197;-86
2022/07/05 04:26:20;;;;;;;2.60;2.40;;;17.40;99.90;;;;;;5027914;28;20198;-86
2022/07/05 04:28:48;;;;;;;3.88;2.63;;;17.30;99.90;;;;;;5041686;28;20231;-87
2022/07/05 04:31:22;;;;;;;2.70;2.50;;;17.00;99.90;;;;;;5026286;28;20209;-87
2022/07/05 04:33:53;;;;;;;4.63;2.60;;;17.10;99.90;;;;;;5027864;28;20215;-86
2022/07/05 04:36:24;;;;;;;2.50;2.30;;;17.10;99.90;;;;;;5022219;28;20225;-86
2022/07/05 04:38:56;;;;;;;2.90;2.17;;;16.90;99.90;;;;;;5038230;28;20571;-86
2022/07/05 04:41:25;;;;;;;3.05;2.75;;;16.80;99.90;;;;;;5022068;28;20195;-86
2022/07/05 04:43:54;;;;;;;3.92;3.10;;;17.00;99.90;;;;;;5028873;28;20215;-86
2022/07/05 04:46:21;;;;;;;3.70;2.97;;;17.10;99.90;;;;;;5030753;28;20188;-86
2022/07/05 04:48:51;;;;;;;2.97;2.78;;;17.20;99.90;;;;;;5018655;28;20218;-86
2022/07/05 04:51:20;;;;;;;3.45;2.92;;;17.10;99.90;;;;;;5031778;28;20248;-86
2022/07/05 04:53:48;;;;;;;5.40;3.25;;;16.80;99.90;;;;;;5015923;28;20199;-86
2022/07/05 04:56:16;;;;;;;3.97;2.70;;;16.80;99.90;;;;;;5040379;28;20207;-86
2022/07/05 04:58:43;;;;;;;2.90;2.53;;;16.90;99.90;;;;;;5022498;28;20215;-86
2022/07/05 05:01:11;;;;;;;4.55;2.63;;;16.80;99.90;;;;;;5019816;28;20195;-86
2022/07/05 05:03:40;;;;;;;4.15;2.95;;;16.70;99.90;;;;;;5021388;28;20204;-86
2022/07/05 05:06:08;;;;;;;3.40;3.05;;;16.70;99.90;;;;;;5022736;28;20210;-86
2022/07/05 05:08:37;;;;;;;4.13;3.08;;;16.60;99.90;;;;;;5020125;28;20219;-86
2022/07/05 05:11:05;;;;;;;5.45;3.55;;;16.50;99.90;;;;;;5023198;28;20195;-86
2022/07/05 05:13:32;;;;;;;7.82;3.72;;;16.60;99.90;;;;;;5025994;28;20206;-86
2022/07/05 05:16:00;;;;;;;6.13;3.20;;;16.70;99.90;;;;;;5030383;28;20222;-87
2022/07/05 05:18:28;;;;;;;7.20;3.15;;;16.90;99.90;;;;;;5029830;28;20234;-87
2022/07/05 05:20:56;;;;;;;3.90;3.05;;;17.10;99.90;;;;;;5032647;28;20208;-86
2022/07/05 05:23:23;;;;;;;4.88;3.33;;;17.20;99.90;;;;;;5020343;28;20211;-86
2022/07/05 05:25:52;;;;;;;5.55;3.40;;;17.40;99.90;;;;;;5021316;28;20212;-87
2022/07/05 05:28:20;;;;;;;5.30;3.35;;;17.60;99.90;;;;;;5015552;28;20230;-87
2022/07/05 05:30:48;;;;;;;8.88;3.47;;;17.70;99.90;;;;;;5025357;28;20199;-87
2022/07/05 05:33:15;;;;;;;5.30;3.85;;;17.90;99.90;;;;;;5019864;28;20266;-87
2022/07/05 05:35:43;;;;;;;6.85;3.00;;;18.10;99.90;;;;;;5022315;28;20216;-87
2022/07/05 05:38:10;;;;;;;4.93;2.63;;;18.20;99.90;;;;;;5019973;28;20216;-87
2022/07/05 05:40:40;;;;;;;5.32;2.78;;;18.40;99.90;;;;;;5021540;28;20567;-87
2022/07/05 05:43:09;;;;;;;3.17;2.53;;;18.50;99.90;;;;;;5022473;28;20210;-87
2022/07/05 05:45:37;;;;;;;3.53;2.65;;;18.60;99.90;;;;;;5028705;28;20210;-87
2022/07/05 05:48:05;;;;;;;3.60;2.90;;;18.60;99.90;;;;;;5020034;28;20250;-87
2022/07/05 05:50:35;;;;;;;2.63;2.42;;;18.60;99.90;;;;;;5021648;28;20212;-86
2022/07/05 05:53:03;;;;;;;4.57;2.28;;;18.80;99.90;;;;;;5020137;28;20207;-86
2022/07/05 05:55:32;;;;;;;3.15;2.53;;;18.90;99.90;;;;;;5018470;28;20207;-84
2022/07/05 05:58:13;;;;;;;4.63;3.05;;;19.00;99.90;;;;;;5019845;28;20211;-86
2022/07/05 06:00:43;;;;;;;2.65;2.45;;;19.20;99.90;;;;;;5016153;28;20210;-86
2022/07/05 06:07:19;;;;;;;3.00;2.55;;;19.30;99.90;;;;;;4992943;28;20340;-87
2022/07/05 06:10:06;;;;;;;3.47;2.42;;;19.20;99.90;;;;;;4974737;28;20204;-88
2022/07/05 06:12:42;;;;;;;3.90;2.38;;;19.60;99.90;;;;;;4987855;28;20204;-89
2022/07/05 06:15:11;;;;;;;2.67;2.05;;;20.10;99.90;;;;;;5030203;28;20200;-88
2022/07/05 06:17:40;;;;;;;2.92;1.80;;;20.40;99.50;;;;;;5026218;28;20234;-88
2022/07/05 06:20:09;;;;;;;2.67;1.85;;;20.40;98.90;;;;;;5023145;28;20211;-88
2022/07/05 06:22:37;;;;;;;2.70;1.95;;;20.60;98.30;;;;;;5015843;28;20212;-87
2022/07/05 06:25:21;;;;;;;3.72;2.00;;;20.70;97.40;;;;;;5027018;28;20210;-87
2022/07/05 06:27:53;;;;;;;2.22;1.90;;;20.60;96.80;;;;;;5039787;28;20230;-88
2022/07/05 06:30:25;;;;;;;2.95;1.80;;;20.50;96.70;;;;;;5016621;28;20218;-89
2022/07/05 06:33:12;;;;;;;6.03;2.20;;;20.20;96.00;;;;;;5025079;28;20211;-88
2022/07/05 06:35:40;;;;;;;2.15;1.95;;;20.20;96.80;;;;;;5020388;28;20222;-89
2022/07/05 06:38:34;;;;;;;1.90;1.70;;;20.10;97.30;;;;;;5023870;28;20226;-89
2022/07/05 06:41:19;;;;;;;1.88;1.70;;;20.20;97.10;;;;;;5019048;28;20206;-87
2022/07/05 06:43:54;;;;;;;2.58;2.10;;;20.70;97.00;;;;;;5018624;28;20196;-88
2022/07/05 06:49:33;;;;;;;3.03;2.33;;;20.30;96.10;;;;;;5009481;28;20236;-88
2022/07/05 06:52:01;;;;;;;3.67;2.20;;;20.90;95.70;;;;;;5018909;28;20199;-88
2022/07/05 06:54:28;;;;;;;2.70;1.75;;;20.90;93.00;;;;;;5025883;28;20202;-88
2022/07/05 06:56:57;;;;;;;2.83;1.40;;;20.60;93.30;;;;;;5028410;28;20215;-86
2022/07/05 06:59:25;;;;;;;5.30;1.85;;;21.00;93.60;;;;;;5028117;28;20227;-87
2022/07/05 07:01:54;;;;;;;2.03;1.50;;;21.00;93.00;;;;;;5025037;28;20206;-86
2022/07/05 07:04:22;;;;;;;11.00;3.38;;;21.10;92.60;;;;;;5027610;28;20203;-86
2022/07/05 07:06:49;;;;;;;16.98;5.10;;;21.30;92.90;;;;;;5024905;28;20192;-87
2022/07/05 07:09:19;;;;;;;15.35;6.65;;;21.30;92.70;;;;;;5024632;28;20219;-86
2022/07/05 07:11:48;;;;;;;4.30;1.70;;;21.60;92.90;;;;;;5035332;28;20198;-84
2022/07/05 07:14:16;;;;;;;8.65;4.15;;;21.20;91.80;;;;;;5015628;28;20586;-86
2022/07/05 07:16:43;;;;;;;4.10;2.75;;;21.40;92.80;;;;;;5025483;28;20211;-87
2022/07/05 07:19:12;;;;;;;3.63;2.33;;;21.00;92.10;;;;;;5021083;28;20228;-87
2022/07/05 07:21:41;;;;;;;2.92;2.05;;;21.10;92.60;;;;;;5018959;28;20225;-87
2022/07/05 07:24:09;;;;;;;3.50;2.13;;;21.20;91.90;;;;;;5019303;28;20215;-87
2022/07/05 07:29:28;;;;;;;4.85;1.98;;;20.80;92.40;;;;;;5023706;28;20222;-86
2022/07/05 07:32:06;;;;;;;5.60;2.35;;;20.90;93.20;;;;;;5022812;28;20207;-88
2022/07/05 07:34:37;;;;;;;2.85;1.80;;;21.30;92.50;;;;;;5015767;28;20204;-90
2022/07/05 07:37:13;;;;;;;4.28;2.10;;;20.90;91.90;;;;;;5024211;28;20334;-89
2022/07/05 07:39:41;;;;;;;4.60;2.70;;;21.00;91.90;;;;;;5025833;28;20208;-89
2022/07/05 07:42:09;;;;;;;4.68;1.92;;;21.30;92.40;;;;;;5016200;28;20543;-89
2022/07/05 07:44:36;;;;;;;4.35;1.42;;;21.60;91.80;;;;;;5022807;28;20207;-88
2022/07/05 07:47:17;;;;;;;3.08;2.00;;;21.20;90.50;;;;;;5018926;28;20199;-88
2022/07/05 07:49:46;;;;;;;3.50;1.90;;;20.50;91.20;;;;;;5019555;28;20570;-87
2022/07/05 07:52:14;;;;;;;3.85;1.60;;;20.60;92.10;;;;;;5022551;28;20203;-90
2022/07/05 07:54:41;;;;;;;3.65;2.13;;;20.90;91.70;;;;;;5030336;28;20202;-89
2022/07/05 07:57:09;;;;;;;3.95;2.08;;;21.00;91.10;;;;;;5026954;28;20208;-89
2022/07/05 07:59:37;;;;;;;3.13;1.80;;;20.70;90.80;;;;;;5021815;28;20234;-87
2022/07/05 08:02:05;;;;;;;3.20;1.85;;;20.80;91.00;;;;;;5037790;28;20202;-86
2022/07/05 08:04:32;;;;;;;3.25;2.03;;;20.60;91.00;;;;;;5023426;28;20208;-87
2022/07/05 08:07:07;;;;;;;3.13;2.08;;;20.80;91.30;;;;;;5019691;28;20203;-87
2022/07/05 08:09:35;;;;;;;2.20;1.85;;;21.00;90.50;;;;;;5039181;28;20764;-87
2022/07/05 08:12:03;;;;;;;2.92;1.95;;;21.10;90.80;;;;;;5021442;28;21016;-85
2022/07/05 08:14:31;;;;;;;2.05;1.77;;;21.00;90.70;;;;;;5028057;28;20210;-84
2022/07/05 08:16:59;;;;;;;2.28;2.08;;;21.20;90.90;;;;;;5023001;28;20231;-83
2022/07/05 08:22:12;;;;;;;2.63;2.35;;;21.00;90.70;;;;;;5031967;28;20203;-83
2022/07/05 08:24:41;;;;;;;2.83;2.20;;;21.20;90.80;;;;;;5022637;28;20210;-84
2022/07/05 08:27:08;;;;;;;2.78;2.25;;;21.30;90.70;;;;;;5036082;28;20206;-84
2022/07/05 08:29:37;;;;;;;2.00;1.85;;;21.20;90.80;;;;;;5030665;28;20222;-84
2022/07/05 08:32:06;;;;;;;4.40;2.50;;;21.20;91.00;;;;;;5030454;28;20535;-83
2022/07/05 08:34:33;;;;;;;2.45;2.20;;;21.10;91.30;;;;;;5033255;28;20210;-84
2022/07/05 08:37:01;;;;;;;2.20;1.90;;;21.00;91.40;;;;;;5025949;28;20218;-83
2022/07/05 08:39:35;;;;;;;3.00;2.00;;;21.00;91.50;;;;;;5029893;28;20228;-83
2022/07/05 08:42:06;;;;;;;3.33;2.03;;;21.10;91.50;;;;;;5025587;28;20202;-84
2022/07/05 08:44:38;;;;;;;4.07;2.30;;;21.20;91.30;;;;;;5029243;28;20203;-83
2022/07/05 08:47:12;;;;;;;2.63;2.30;;;21.20;91.00;;;;;;5032525;28;20195;-84
2022/07/05 08:49:51;;;;;;;2.63;2.40;;;20.90;90.90;;;;;;5026190;28;20662;-84
2022/07/05 08:52:34;;;;;;;3.97;2.28;;;20.90;91.20;;;;;;5033364;28;20210;-83
2022/07/05 08:55:15;;;;;;;2.53;2.10;;;20.90;91.40;;;;;;5026592;28;20662;-83
2022/07/05 08:58:05;;;;;;;3.03;1.90;;;20.90;91.70;;;;;;5022883;28;20215;-86
2022/07/05 09:00:45;;;;;;;5.03;2.00;;;21.20;91.90;;;;;;5025644;28;20191;-84
2022/07/05 09:03:19;;;;;;;3.90;1.92;;;21.30;91.60;;;;;;5024410;28;20206;-85
2022/07/05 09:05:57;;;;;;;2.85;1.58;;;21.60;90.10;;;;;;5021499;28;20187;-84
2022/07/05 09:08:33;;;;;;;3.20;1.90;;;21.80;90.20;;;;;;5031662;28;20592;-84
2022/07/05 09:11:17;;;;;;;3.90;2.00;;;21.90;88.50;;;;;;5038671;28;20202;-85
2022/07/05 09:14:00;;;;;;;7.03;1.80;;;21.70;86.80;;;;;;5022215;28;20654;-85
2022/07/05 09:16:55;;;;;;;4.55;2.03;;;21.70;87.50;;;;;;5037301;28;20816;-84
2022/07/05 09:19:37;;;;;;;3.10;2.15;;;21.70;86.10;;;;;;5019615;28;20582;-85
2022/07/05 09:22:12;;;;;;;3.78;2.00;;;21.60;86.10;;;;;;5019021;28;20201;-85
2022/07/05 09:24:49;;;;;;;2.75;1.83;;;21.30;86.30;;;;;;5016879;28;20217;-85
2022/07/05 09:27:21;;;;;;;2.47;1.90;;;21.50;88.00;;;;;;5025540;28;20187;-85
2022/07/05 09:30:07;;;;;;;3.28;2.08;;;21.90;85.90;;;;;;5015049;28;20196;-85
2022/07/05 09:32:38;;;;;;;3.90;2.10;;;21.70;85.50;;;;;;5020752;28;20188;-84
2022/07/05 09:35:20;;;;;;;5.90;1.75;;;21.70;83.40;;;;;;5032907;28;20195;-84
2022/07/05 09:37:54;;;;;;;2.13;1.70;;;21.50;82.40;;;;;;5026380;28;20742;-83
2022/07/05 09:40:40;;;;;;;3.10;2.00;;;21.30;82.60;;;;;;5015292;28;20258;-82
2022/07/05 09:43:20;;;;;;;2.30;2.10;;;21.20;83.90;;;;;;5021516;28;20658;-83
2022/07/05 09:45:55;;;;;;;1.63;1.52;;;21.10;83.30;;;;;;5024100;28;20689;-83
2022/07/05 09:48:30;;;;;;;4.13;1.70;;;21.20;82.60;;;;;;5018726;28;20253;-84
2022/07/05 09:51:09;;;;;;;3.15;1.90;;;21.20;81.50;;;;;;5025523;28;20215;-84
2022/07/05 09:53:50;;;;;;;4.13;1.73;;;21.30;79.20;;;;;;5022280;28;20191;-83
2022/07/05 09:56:23;;;;;;;2.67;1.60;;;21.60;78.90;;;;;;5020164;28;20199;-84
2022/07/05 09:59:12;;;;;;;4.57;1.77;;;21.60;80.20;;;;;;5038429;28;20218;-84
2022/07/05 10:01:47;;;;;;;1.58;1.48;;;21.60;77.00;;;;;;5035022;28;20204;-84
2022/07/05 10:04:26;;;;;;;2.70;1.52;;;21.70;76.50;;;;;;5019239;28;20289;-83
2022/07/05 10:06:56;;;;;;;1.40;1.30;;;21.90;74.70;;;;;;5016560;28;20207;-83
2022/07/05 10:09:38;;;;;;;2.92;1.70;;;21.80;72.80;;;;;;5019886;28;20223;-84
2022/07/05 10:12:10;;;;;;;1.95;1.73;;;21.80;71.40;;;;;;5021562;28;20199;-85
2022/07/05 10:14:59;;;;;;;3.83;1.70;;;22.00;73.10;;;;;;5023139;28;20199;-83
2022/07/05 10:17:40;;;;;;;2.50;1.50;;;22.10;73.20;;;;;;5026694;28;20223;-85
2022/07/05 10:20:28;;;;;;;2.63;1.60;;;22.10;73.00;;;;;;5019003;28;20203;-85
2022/07/05 10:23:23;;;;;;;3.50;1.75;;;22.00;73.20;;;;;;5015725;28;20191;-83
2022/07/05 10:25:57;;;;;;;3.53;1.85;;;21.60;74.60;;;;;;5022217;28;20550;-84
2022/07/05 10:28:26;;;;;;;2.65;1.70;;;21.60;75.10;;;;;;5019308;28;20250;-83
2022/07/05 10:31:02;;;;;;;2.85;1.70;;;21.40;74.50;;;;;;5019929;28;20199;-83
2022/07/05 10:33:34;;;;;;;3.38;1.80;;;21.50;74.10;;;;;;5025737;28;20774;-82
2022/07/05 10:36:25;;;;;;;2.53;1.75;;;21.50;73.80;;;;;;5026143;28;20203;-82
2022/07/05 10:38:58;;;;;;;2.60;1.80;;;21.60;72.30;;;;;;5036813;28;20231;-82
2022/07/05 10:41:51;;;;;;;2.63;1.90;;;21.50;72.10;;;;;;5024757;28;20203;-82
2022/07/05 10:44:35;;;;;;;2.28;1.80;;;21.60;71.30;;;;;;5016725;28;20195;-82
2022/07/05 10:47:18;;;;;;;1.60;1.50;;;21.70;71.20;;;;;;5040243;28;20199;-82
2022/07/05 10:50:08;;;;;;;2.85;1.80;;;21.80;67.00;;;;;;5013748;28;20203;-84
2022/07/05 10:53:12;;;;;;;1.77;1.50;;;21.80;67.10;;;;;;5021424;28;20566;-83
2022/07/05 10:56:00;;;;;;;1.70;1.60;;;21.70;65.70;;;;;;5031363;28;20204;-84
2022/07/05 10:58:41;;;;;;;3.20;1.83;;;21.90;67.80;;;;;;5025563;28;20214;-83
2022/07/05 11:01:58;;;;;;;2.20;2.00;;;22.00;66.00;;;;;;5030349;28;20204;-83
2022/07/05 11:04:35;;;;;;;2.78;1.65;;;21.90;64.70;;;;;;5023873;28;20203;-84
2022/07/05 11:07:09;;;;;;;3.22;2.13;;;22.10;64.70;;;;;;5045298;28;20199;-84
2022/07/05 11:10:07;;;;;;;2.60;1.83;;;22.20;63.30;;;;;;5028933;28;20219;-83
2022/07/05 11:12:43;;;;;;;3.15;1.92;;;22.30;61.80;;;;;;5024328;28;20208;-83
2022/07/05 11:15:18;;;;;;;3.20;1.60;;;22.60;60.00;;;;;;5030418;28;20195;-83
2022/07/05 11:17:51;;;;;;;1.83;1.40;;;22.80;59.50;;;;;;5022282;28;20230;-83
2022/07/05 11:20:31;;;;;;;2.28;1.38;;;22.60;58.80;;;;;;5044435;28;20199;-83
2022/07/05 11:23:13;;;;;;;1.67;1.35;;;22.40;60.20;;;;;;5023138;28;20210;-83
2022/07/05 11:25:50;;;;;;;3.88;1.50;;;22.30;61.10;;;;;;5030990;28;20219;-84
2022/07/05 11:28:43;;;;;;;2.17;1.55;;;22.20;63.30;;;;;;5035929;28;20214;-84
2022/07/05 11:31:16;;;;;;;2.03;1.40;;;22.10;64.10;;;;;;5029152;28;20207;-84
2022/07/05 11:33:54;;;;;;;4.53;1.60;;;22.10;65.40;;;;;;5031672;28;20196;-84
2022/07/05 11:36:27;;;;;;;2.80;1.48;;;22.10;65.60;;;;;;5031866;28;20203;-83
2022/07/05 11:39:27;;;;;;;3.45;1.58;;;22.30;66.60;;;;;;5043795;28;20211;-84
2022/07/05 11:41:58;;;;;;;4.95;1.60;;;22.50;67.40;;;;;;5024953;28;20195;-84
2022/07/05 11:44:35;;;;;;;1.83;1.42;;;22.50;67.10;;;;;;5039234;28;20188;-84
2022/07/05 11:47:09;;;;;;;1.63;1.52;;;22.70;66.50;;;;;;5042622;28;20199;-84
2022/07/05 11:49:54;;;;;;;1.58;1.45;;;23.00;66.30;;;;;;5053039;28;20222;-84
2022/07/05 11:52:33;;;;;;;4.72;1.90;;;22.70;63.40;;;;;;5041782;28;20206;-83
2022/07/05 11:55:06;;;;;;;1.40;1.27;;;22.50;64.10;;;;;;5026445;28;20542;-85
2022/07/05 11:57:51;;;;;;;3.55;1.30;;;22.40;63.70;;;;;;5029937;28;20207;-85
2022/07/05 12:00:32;;;;;;;1.98;1.23;;;22.30;63.90;;;;;;5029417;28;20206;-86
2022/07/05 12:03:11;;;;;;;3.28;1.45;;;22.50;61.80;;;;;;5017069;28;20199;-87
2022/07/05 12:05:43;;;;;;;1.92;1.50;;;22.80;60.80;;;;;;5028043;28;20210;-85
2022/07/05 12:08:22;;;;;;;2.40;1.30;;;22.70;61.00;;;;;;5034377;28;20215;-85
2022/07/05 12:13:58;;;;;;;1.60;1.50;;;23.10;63.00;;;;;;5034229;28;20695;-85
2022/07/05 12:16:35;;;;;;;3.55;1.60;;;22.90;61.10;;;;;;5030543;28;20213;-85
2022/07/05 12:19:12;;;;;;;2.80;1.50;;;22.80;59.60;;;;;;5040095;28;20215;-85
2022/07/05 12:21:53;;;;;;;2.63;1.58;;;22.80;58.60;;;;;;5028636;28;20194;-85
2022/07/05 12:24:27;;;;;;;2.67;1.67;;;22.90;60.10;;;;;;5035752;28;20200;-85
2022/07/05 12:27:07;;;;;;;3.28;1.60;;;22.90;59.80;;;;;;5028622;28;20200;-85
2022/07/05 12:29:41;;;;;;;3.30;1.65;;;23.10;61.50;;;;;;5021473;28;20219;-85
2022/07/05 12:32:22;;;;;;;2.45;1.50;;;23.10;60.90;;;;;;5025237;28;20207;-85
2022/07/05 12:35:03;;;;;;;3.72;1.48;;;23.00;62.30;;;;;;5015110;28;20179;-85
2022/07/05 12:37:51;;;;;;;2.10;1.67;;;22.90;61.20;;;;;;5028121;28;20211;-84
2022/07/05 12:40:31;;;;;;;4.95;1.60;;;22.60;60.90;;;;;;5037068;28;20674;-84
2022/07/05 12:43:06;;;;;;;2.70;1.40;;;22.50;58.40;;;;;;5026041;28;20207;-83
2022/07/05 12:45:48;;;;;;;1.95;1.70;;;22.90;59.10;;;;;;5024178;28;20191;-85
2022/07/05 12:48:33;;;;;;;1.80;1.60;;;23.00;57.20;;;;;;5024293;28;20222;-85
2022/07/05 12:51:15;;;;;;;2.63;1.55;;;23.30;57.00;;;;;;5027062;28;20196;-84
2022/07/05 13:00:00;;;;;;;1.50;1.30;;;23.80;54.00;;;;;;5022826;28;20215;-85
2022/07/05 13:02:47;;;;;;;2.85;1.83;;;24.10;53.00;;;;;;5035481;28;20210;-86
2022/07/05 13:05:27;;;;;;;1.55;1.30;;;24.10;51.70;;;;;;5024579;28;20199;-86
2022/07/05 13:07:58;;;;;;;1.60;1.35;;;23.80;51.10;;;;;;5019810;28;20218;-85
2022/07/05 13:10:49;;;;;;;2.33;1.35;;;23.60;52.60;;;;;;5023995;28;20201;-85
2022/07/05 13:13:23;;;;;;;1.95;1.38;;;23.80;52.60;;;;;;5028676;28;20202;-84
2022/07/05 13:16:06;;;;;;;2.10;1.40;;;24.20;52.10;;;;;;5034270;28;20192;-85
2022/07/05 13:18:46;;;;;;;1.20;1.10;;;24.10;52.20;;;;;;5024996;28;20226;-85
2022/07/05 13:21:29;;;;;;;2.42;1.30;;;24.30;52.90;;;;;;5011902;28;20196;-86
2022/07/05 13:24:08;;;;;;;2.10;1.42;;;24.70;51.60;;;;;;5019169;28;20206;-86
2022/07/05 13:26:42;;;;;;;2.65;1.50;;;25.00;51.20;;;;;;5027444;28;20202;-84
2022/07/05 13:29:22;;;;;;;2.88;1.77;;;24.90;51.20;;;;;;5028372;28;20221;-85
2022/07/05 13:31:58;;;;;;;2.83;1.52;;;24.70;51.60;;;;;;5027961;28;20200;-86
2022/07/05 13:34:40;;;;;;;3.58;1.50;;;24.30;51.50;;;;;;5024724;28;20203;-85
2022/07/05 13:37:19;;;;;;;2.53;1.55;;;24.20;52.50;;;;;;5026640;28;20206;-86